Time;durP1;ratioP1;P1;durP2;ratioP2;P2;SDS_P1;SDS_P2;PMS_P1;PMS_P2;Temp;Humidity;BMP_temperature;BMP_pressure;BME280_temperature;BME280_humidity;BME280_pressure;Samples;Min_cycle;Max_cycle;Signal;HPM_P1;HPM_P2
2022/07/27 06:39:39;;;;;;;;;;;;;;;25.68;41.03;96734.75;4252371;27;10506;-68
2022/07/27 06:41:42;;;;;;;;;;;;;;;25.99;40.57;96738.66;4261978;27;5872;-67
2022/07/27 06:43:45;;;;;;;;;;;;;;;26.24;40.08;96736.66;4246615;27;5744;-67
2022/07/27 06:45:48;;;;;;;;;;;;;;;26.43;40.22;96748.34;4245698;27;5771;-67
2022/07/27 06:47:51;;;;;;;;;;;;;;;26.52;39.72;96743.84;4246380;27;5743;-67
2022/07/27 06:49:54;;;;;;;;;;;;;;;26.56;39.75;96744.84;4245370;27;5776;-68
2022/07/27 06:51:57;;;;;;;;;;;;;;;26.62;39.18;96749.09;4245904;27;5748;-69
2022/07/27 06:54:00;;;;;;;;;;;;;;;26.72;39.47;96744.59;4245937;27;5793;-67
2022/07/27 06:56:07;;;;;;;;;;;;;;;26.73;39.02;96730.75;4256661;27;6710;-66
2022/07/27 06:58:11;;;;;;;;;;;;;;;26.74;39.00;96728.84;4262213;27;5718;-67
2022/07/27 07:00:15;;;;;;;;;;;;;;;26.75;39.13;96741.31;4262766;27;5778;-67
2022/07/27 07:02:18;;;;;;;;;;;;;;;26.75;38.85;96741.31;4262817;27;5723;-67
2022/07/27 07:04:23;;;;;;;;;;;;;;;26.79;38.66;96743.09;4253990;27;5796;-67
2022/07/27 07:06:27;;;;;;;;;;;;;;;26.82;38.41;96745.22;4245637;27;5735;-67
2022/07/27 07:08:29;;;;;;;;;;;;;;;26.86;38.29;96734.59;4253653;27;5748;-76
2022/07/27 07:10:32;;;;;;;;;;;;;;;26.87;38.38;96739.72;4258102;27;5730;-75
2022/07/27 07:12:37;;;;;;;;;;;;;;;26.88;38.46;96743.22;4266774;27;5738;-77
2022/07/27 07:14:40;;;;;;;;;;;;;;;26.83;38.36;96741.41;4258586;27;5723;-70
2022/07/27 07:16:43;;;;;;;;;;;;;;;26.77;38.00;96747.22;4260338;27;5725;-69
2022/07/27 07:18:46;;;;;;;;;;;;;;;26.57;37.85;96745.66;4261196;27;5754;-76
2022/07/27 07:20:54;;;;;;;;;;;;;;;26.56;37.82;96746.75;4258949;27;6031;-74
2022/07/27 07:22:57;;;;;;;;;;;;;;;26.55;37.97;96740.53;4262899;27;5730;-78
2022/07/27 07:25:00;;;;;;;;;;;;;;;26.48;37.79;96742.81;4266685;27;5719;-81
2022/07/27 07:27:05;;;;;;;;;;;;;;;26.45;37.93;96743.41;4267425;27;5766;-75
2022/07/27 07:29:09;;;;;;;;;;;;;;;26.31;37.59;96746.06;4259207;27;5946;-74
2022/07/27 07:31:12;;;;;;;;;;;;;;;26.29;37.49;96742.03;4250680;27;5731;-74
2022/07/27 07:33:16;;;;;;;;;;;;;;;26.29;37.43;96736.63;4250191;27;5714;-76
2022/07/27 07:35:19;;;;;;;;;;;;;;;26.25;37.59;96746.41;4260719;27;5754;-75
2022/07/27 07:37:22;;;;;;;;;;;;;;;26.26;37.69;96748.81;4261771;27;5734;-74
2022/07/27 07:39:35;;;;;;;;;;;;;;;26.22;37.22;96749.72;4251186;27;7708;-75
2022/07/27 07:41:38;;;;;;;;;;;;;;;26.10;37.33;96750.16;4250263;27;5814;-74
2022/07/27 07:43:41;;;;;;;;;;;;;;;26.08;37.58;96747.75;4249977;27;5738;-74
2022/07/27 07:45:46;;;;;;;;;;;;;;;26.12;37.00;96747.97;4249343;27;5734;-74
2022/07/27 07:47:54;;;;;;;;;;;;;;;26.08;37.33;96747.75;4249596;27;5869;-74
2022/07/27 07:49:57;;;;;;;;;;;;;;;26.11;36.89;96738.22;4252599;27;5740;-74
2022/07/27 07:52:00;;;;;;;;;;;;;;;26.18;37.00;96735.16;4251669;27;6462;-74
2022/07/27 07:54:04;;;;;;;;;;;;;;;26.26;36.88;96737.19;4251839;27;5874;-74
2022/07/27 07:56:07;;;;;;;;;;;;;;;26.31;36.67;96742.53;4243224;27;5707;-72
2022/07/27 07:58:10;;;;;;;;;;;;;;;26.40;37.09;96735.38;4251571;27;5719;-73
2022/07/27 08:00:14;;;;;;;;;;;;;;;26.35;36.67;96736.22;4234792;27;5852;-73
2022/07/27 08:02:19;;;;;;;;;;;;;;;26.32;36.44;96727.88;4235778;27;5740;-73
2022/07/27 08:04:22;;;;;;;;;;;;;;;26.30;36.64;96735.50;4235508;28;5774;-72
2022/07/27 08:06:25;;;;;;;;;;;;;;;26.28;36.71;96729.59;4236826;27;6572;-72
2022/07/27 08:08:28;;;;;;;;;;;;;;;26.19;36.37;96726.72;4235499;28;5772;-70
2022/07/27 08:10:32;;;;;;;;;;;;;;;26.16;36.45;96723.78;4240432;27;5726;-68
2022/07/27 08:12:35;;;;;;;;;;;;;;;26.12;36.63;96727.09;4246288;27;5723;-68
2022/07/27 08:14:38;;;;;;;;;;;;;;;26.13;36.54;96723.28;4239426;27;5719;-70
2022/07/27 08:16:41;;;;;;;;;;;;;;;26.22;36.30;96725.34;4239094;27;5860;-69
2022/07/27 08:18:45;;;;;;;;;;;;;;;26.19;36.31;96726.72;4238595;27;5825;-71
2022/07/27 08:20:48;;;;;;;;;;;;;;;26.20;36.01;96716.69;4238579;27;5775;-76
2022/07/27 08:22:51;;;;;;;;;;;;;;;26.24;36.16;96723.13;4252292;27;5723;-78
2022/07/27 08:24:54;;;;;;;;;;;;;;;26.30;36.43;96719.25;4245690;27;5728;-71
2022/07/27 08:26:57;;;;;;;;;;;;;;;26.32;36.37;96719.75;4247470;27;5802;-74
2022/07/27 08:29:00;;;;;;;;;;;;;;;26.34;35.71;96729.19;4237061;27;5809;-77
2022/07/27 08:31:14;;;;;;;;;;;;;;;26.30;35.87;96722.75;4246351;27;5762;-73
2022/07/27 08:33:26;;;;;;;;;;;;;;;26.26;36.05;96731.75;4251716;27;5758;-74
2022/07/27 08:35:32;;;;;;;;;;;;;;;26.27;35.87;96728.75;4247332;27;5723;-69
2022/07/27 08:37:35;;;;;;;;;;;;;;;26.31;35.80;96726.28;4242341;27;5721;-68
2022/07/27 08:39:38;;;;;;;;;;;;;;;26.33;35.94;96721.34;4214257;28;5769;-68
2022/07/27 08:42:03;;;;;;;;;;;;;;;26.40;35.92;96724.53;4216087;28;5765;-67
2022/07/27 08:44:07;;;;;;;;;;;;;;;26.44;35.65;96720.13;4214553;28;5829;-68
2022/07/27 08:46:11;;;;;;;;;;;;;;;26.41;35.71;96720.72;4215857;28;6940;-67
2022/07/27 08:48:15;;;;;;;;;;;;;;;26.46;35.46;96722.53;4215973;28;5867;-68
2022/07/27 08:50:27;;;;;;;;;;;;;;;26.50;35.78;96721.63;4216269;28;5818;-67
2022/07/27 08:52:32;;;;;;;;;;;;;;;26.52;35.42;96719.47;4204634;28;5842;-67
2022/07/27 08:54:37;;;;;;;;;;;;;;;26.60;35.53;96715.25;4211593;28;5808;-68
2022/07/27 08:56:40;;;;;;;;;;;;;;;26.64;35.63;96717.06;4206062;28;5873;-67
2022/07/27 08:58:44;;;;;;;;;;;;;;;26.68;35.74;96718.06;4214336;28;5769;-67
2022/07/27 09:00:49;;;;;;;;;;;;;;;26.67;35.20;96718.38;4216126;28;5829;-67
2022/07/27 09:02:53;;;;;;;;;;;;;;;26.66;35.19;96720.28;4214714;28;5712;-67
2022/07/27 09:04:57;;;;;;;;;;;;;;;26.65;35.31;96728.72;4212118;28;5864;-67
2022/07/27 09:07:00;;;;;;;;;;;;;;;26.68;35.54;96714.56;4213296;28;5762;-67
2022/07/27 09:09:05;;;;;;;;;;;;;;;26.72;35.16;96722.91;4216083;28;6364;-67
2022/07/27 09:11:14;;;;;;;;;;;;;;;26.75;35.45;96719.59;4215793;28;5820;-68
2022/07/27 09:13:19;;;;;;;;;;;;;;;26.78;35.16;96727.94;4216076;28;5765;-67
2022/07/27 09:15:22;;;;;;;;;;;;;;;26.72;35.52;96722.91;4215126;28;5773;-67
2022/07/27 09:17:27;;;;;;;;;;;;;;;26.69;35.43;96718.88;4216028;28;5757;-68
2022/07/27 09:19:53;;;;;;;;;;;;;;;26.69;35.00;96716.16;4215887;28;5927;-67
2022/07/27 09:21:56;;;;;;;;;;;;;;;26.78;35.52;96713.59;4215866;28;5800;-67
2022/07/27 09:24:09;;;;;;;;;;;;;;;26.82;35.20;96714.59;4215391;28;5850;-67
2022/07/27 09:26:31;;;;;;;;;;;;;;;26.88;35.16;96718.81;4215754;28;5769;-67
2022/07/27 09:28:42;;;;;;;;;;;;;;;26.85;35.41;96711.28;4210357;28;5804;-66
2022/07/27 09:30:45;;;;;;;;;;;;;;;26.89;35.15;96715.00;4203591;28;5774;-68
2022/07/27 09:32:54;;;;;;;;;;;;;;;26.95;35.14;96724.63;4202626;28;6684;-67
2022/07/27 09:34:57;;;;;;;;;;;;;;;26.92;35.39;96720.63;4207792;28;6690;-68
2022/07/27 09:37:02;;;;;;;;;;;;;;;26.93;35.18;96716.81;4213958;28;5781;-67
2022/07/27 09:39:09;;;;;;;;;;;;;;;27.03;35.23;96723.19;4225296;27;5107;-67
2022/07/27 09:41:12;;;;;;;;;;;;;;;27.08;35.27;96726.63;4232477;27;5817;-67
2022/07/27 09:43:15;;;;;;;;;;;;;;;27.14;35.15;96730.03;4232734;27;6346;-67
2022/07/27 09:45:42;;;;;;;;;;;;;;;27.19;34.97;96725.31;4243918;27;5735;-66
2022/07/27 09:47:53;;;;;;;;;;;;;;;27.25;35.17;96721.38;4248388;27;5981;-67
2022/07/27 09:49:57;;;;;;;;;;;;;;;27.22;35.24;96724.72;4231774;27;5764;-66
2022/07/27 09:52:02;;;;;;;;;;;;;;;27.25;35.20;96724.09;4243455;27;5733;-66
2022/07/27 09:54:07;;;;;;;;;;;;;;;27.34;35.19;96731.53;4242981;27;6658;-67
2022/07/27 09:56:16;;;;;;;;;;;;;;;27.43;34.88;96732.44;4234177;27;5703;-67
2022/07/27 09:58:19;;;;;;;;;;;;;;;27.47;35.19;96733.44;4246262;27;5708;-64
2022/07/27 10:00:22;;;;;;;;;;;;;;;27.52;35.10;96730.59;4247406;27;5790;-65
2022/07/27 10:02:25;;;;;;;;;;;;;;;27.59;35.10;96736.44;4236646;27;5794;-65
2022/07/27 10:04:31;;;;;;;;;;;;;;;27.64;35.25;96736.34;4237825;27;7694;-66
2022/07/27 10:06:35;;;;;;;;;;;;;;;27.67;35.16;96740.41;4231862;27;5837;-65
2022/07/27 10:09:00;;;;;;;;;;;;;;;27.66;35.57;96741.50;4244877;27;5726;-65
2022/07/27 10:11:03;;;;;;;;;;;;;;;27.64;35.47;96733.63;4247962;27;5734;-65
2022/07/27 10:13:10;;;;;;;;;;;;;;;27.64;35.77;96733.63;4245737;27;5781;-66
2022/07/27 10:15:14;;;;;;;;;;;;;;;27.67;35.95;96733.06;4231592;27;5760;-65
2022/07/27 10:17:17;;;;;;;;;;;;;;;27.68;35.98;96731.94;4231999;27;5751;-65
2022/07/27 10:19:25;;;;;;;;;;;;;;;27.64;36.08;96728.22;4231749;27;5803;-65
2022/07/27 10:21:29;;;;;;;;;;;;;;;27.63;36.18;96728.47;4231875;27;5957;-65
2022/07/27 10:23:34;;;;;;;;;;;;;;;27.62;36.32;96726.88;4229991;27;5722;-66
2022/07/27 10:25:38;;;;;;;;;;;;;;;27.62;36.08;96724.16;4235992;27;5813;-65
2022/07/27 10:27:41;;;;;;;;;;;;;;;27.63;36.13;96721.13;4236671;27;5822;-66
2022/07/27 10:29:47;;;;;;;;;;;;;;;27.65;36.26;96715.47;4239008;27;5711;-65
2022/07/27 10:31:59;;;;;;;;;;;;;;;27.70;36.04;96721.56;4238411;27;5731;-66
2022/07/27 10:34:04;;;;;;;;;;;;;;;27.74;36.17;96722.56;4241548;27;5819;-66
2022/07/27 10:36:15;;;;;;;;;;;;;;;27.79;36.13;96721.66;4239679;27;5764;-67
2022/07/27 10:38:20;;;;;;;;;;;;;;;27.80;36.23;96710.50;4245687;27;5770;-66
2022/07/27 10:40:35;;;;;;;;;;;;;;;27.84;36.52;96718.81;4232677;27;5728;-66
2022/07/27 10:42:38;;;;;;;;;;;;;;;27.91;36.18;96718.41;4241763;27;5725;-67
2022/07/27 10:44:54;;;;;;;;;;;;;;;27.96;36.38;96719.09;4242184;27;5750;-66
2022/07/27 10:46:59;;;;;;;;;;;;;;;28.01;36.16;96712.75;4233277;27;5794;-66
2022/07/27 10:49:17;;;;;;;;;;;;;;;28.04;36.25;96710.22;4241673;27;5743;-64
2022/07/27 10:51:34;;;;;;;;;;;;;;;28.02;36.23;96704.28;4238374;27;5806;-65
2022/07/27 10:53:39;;;;;;;;;;;;;;;28.02;36.38;96711.63;4232947;27;5744;-65
2022/07/27 10:56:03;;;;;;;;;;;;;;;28.02;36.37;96708.91;4239821;27;5731;-65
2022/07/27 10:58:40;;;;;;;;;;;;;;;28.00;36.60;96713.88;4231159;27;5755;-66
2022/07/27 11:01:00;;;;;;;;;;;;;;;27.99;36.52;96712.25;4237499;27;5743;-66
2022/07/27 11:03:05;;;;;;;;;;;;;;;27.98;36.46;96708.75;4239505;27;5759;-66
2022/07/27 11:05:10;;;;;;;;;;;;;;;28.03;36.39;96713.25;4237429;27;5743;-65
2022/07/27 11:07:33;;;;;;;;;;;;;;;28.03;36.54;96708.59;4243633;27;5791;-66
2022/07/27 11:09:49;;;;;;;;;;;;;;;28.06;36.45;96715.34;4248052;27;5734;-66
2022/07/27 11:12:09;;;;;;;;;;;;;;;28.02;36.77;96708.91;4247546;27;5730;-64
2022/07/27 11:14:12;;;;;;;;;;;;;;;27.99;36.45;96714.97;4242167;27;5783;-64
2022/07/27 11:16:22;;;;;;;;;;;;;;;28.01;36.67;96704.59;4251141;27;5714;-65
2022/07/27 11:18:28;;;;;;;;;;;;;;;28.05;36.63;96705.59;4250936;27;5734;-66
2022/07/27 11:20:31;;;;;;;;;;;;;;;28.12;36.54;96695.09;4250137;27;5719;-65
2022/07/27 11:22:35;;;;;;;;;;;;;;;28.17;36.52;96691.44;4236088;27;5810;-64
2022/07/27 11:25:00;;;;;;;;;;;;;;;28.17;36.67;96691.44;4241454;27;5822;-65
2022/07/27 11:27:04;;;;;;;;;;;;;;;28.17;36.50;96691.44;4250106;27;5735;-65
2022/07/27 11:29:20;;;;;;;;;;;;;;;28.12;36.75;96695.91;4241378;27;5800;-64
2022/07/27 11:31:24;;;;;;;;;;;;;;;28.07;36.79;96682.41;4239486;27;5827;-65
2022/07/27 11:33:55;;;;;;;;;;;;;;;28.10;36.68;96686.47;4239399;27;6349;-65
2022/07/27 11:36:00;;;;;;;;;;;;;;;28.14;36.78;96685.53;4242682;27;5755;-65
2022/07/27 11:38:05;;;;;;;;;;;;;;;28.19;36.71;96684.59;4240623;27;5715;-65
2022/07/27 11:40:09;;;;;;;;;;;;;;;28.25;36.61;96688.00;4241658;27;5759;-65
2022/07/27 11:42:39;;;;;;;;;;;;;;;28.27;36.84;96689.31;4239764;27;5715;-64
2022/07/27 11:44:43;;;;;;;;;;;;;;;28.25;36.75;96682.56;4246371;27;7095;-65
2022/07/27 11:46:51;;;;;;;;;;;;;;;28.24;36.74;96687.19;4243724;27;5785;-65
2022/07/27 11:48:57;;;;;;;;;;;;;;;28.27;36.84;96689.31;4242195;27;5783;-64
2022/07/27 11:51:19;;;;;;;;;;;;;;;28.27;36.88;96683.88;4236906;27;5736;-66
2022/07/27 11:53:22;;;;;;;;;;;;;;;28.28;36.89;96680.03;4249993;27;5671;-65
2022/07/27 11:55:25;;;;;;;;;;;;;;;28.30;37.07;96683.25;4239321;27;6473;-66
2022/07/27 11:57:31;;;;;;;;;;;;;;;28.34;37.03;96689.69;4240205;27;5750;-67
2022/07/27 11:59:36;;;;;;;;;;;;;;;28.39;37.11;96678.69;4249280;27;5732;-65
2022/07/27 12:01:41;;;;;;;;;;;;;;;28.42;37.13;96671.81;4238059;27;5715;-72
2022/07/27 12:03:45;;;;;;;;;;;;;;;28.42;36.83;96678.06;4237808;27;5087;-71
2022/07/27 12:05:50;;;;;;;;;;;;;;;28.45;37.26;96671.22;4237971;27;5741;-67
2022/07/27 12:07:54;;;;;;;;;;;;;;;28.51;37.03;96669.16;4243952;27;5719;-66
2022/07/27 12:09:58;;;;;;;;;;;;;;;28.57;36.86;96667.91;4243569;27;5804;-69
2022/07/27 12:12:07;;;;;;;;;;;;;;;28.62;36.72;96665.06;4247847;27;5134;-70
2022/07/27 12:14:12;;;;;;;;;;;;;;;28.63;36.96;96656.59;4242172;27;5763;-73
2022/07/27 12:16:18;;;;;;;;;;;;;;;28.66;36.97;96660.63;4248049;27;6226;-72
2022/07/27 12:18:21;;;;;;;;;;;;;;;28.68;36.67;96661.09;4248573;27;5774;-71
2022/07/27 12:20:33;;;;;;;;;;;;;;;28.69;36.87;96657.25;4242732;27;5807;-72
2022/07/27 12:22:37;;;;;;;;;;;;;;;28.73;36.91;96662.88;4247397;27;5718;-66
2022/07/27 12:24:43;;;;;;;;;;;;;;;28.74;36.67;96662.56;4243021;27;5808;-65
2022/07/27 12:27:02;;;;;;;;;;;;;;;28.74;36.55;96661.75;4240946;27;5794;-70
2022/07/27 12:29:10;;;;;;;;;;;;;;;28.71;36.73;96655.03;4241679;27;5723;-68
2022/07/27 12:31:18;;;;;;;;;;;;;;;28.73;36.80;96660.16;4241449;27;5722;-74
2022/07/27 12:33:28;;;;;;;;;;;;;;;28.75;36.81;96657.91;4243052;27;5769;-71
2022/07/27 12:35:34;;;;;;;;;;;;;;;28.79;36.78;96659.72;4239694;27;5790;-67
2022/07/27 12:37:42;;;;;;;;;;;;;;;28.79;37.00;96658.91;4242152;27;5163;-77
2022/07/27 12:39:46;;;;;;;;;;;;;;;28.83;37.21;96651.72;4243907;27;5733;-77
2022/07/27 12:42:02;;;;;;;;;;;;;;;28.82;36.95;96656.34;4236597;27;5747;-75
2022/07/27 12:44:07;;;;;;;;;;;;;;;28.80;37.27;96658.59;4244882;27;5748;-74
2022/07/27 12:46:12;;;;;;;;;;;;;;;28.79;37.09;96648.03;4240199;27;5749;-70
2022/07/27 12:48:17;;;;;;;;;;;;;;;28.81;36.98;96646.59;4238540;27;5715;-70
2022/07/27 12:50:28;;;;;;;;;;;;;;;28.83;37.03;96652.53;4235153;27;5752;-71
2022/07/27 12:52:32;;;;;;;;;;;;;;;28.83;37.04;96649.81;4237964;27;5916;-67
2022/07/27 12:54:35;;;;;;;;;;;;;;;28.83;36.87;96649.81;4239736;27;5748;-67
2022/07/27 12:56:39;;;;;;;;;;;;;;;28.85;36.77;96649.47;4235888;27;5756;-67
2022/07/27 12:58:58;;;;;;;;;;;;;;;28.85;36.90;96633.97;4238504;27;5772;-67
2022/07/27 13:01:01;;;;;;;;;;;;;;;28.86;36.90;96642.91;4235978;27;5793;-67
2022/07/27 13:03:05;;;;;;;;;;;;;;;28.85;36.73;96639.41;4244237;27;5810;-66
2022/07/27 13:05:10;;;;;;;;;;;;;;;28.87;36.92;96639.88;4247784;27;5727;-65
2022/07/27 13:07:13;;;;;;;;;;;;;;;28.92;36.94;96630.81;4247654;27;5758;-66
2022/07/27 13:09:18;;;;;;;;;;;;;;;28.95;37.02;96638.34;4244151;27;5752;-67
2022/07/27 13:11:21;;;;;;;;;;;;;;;28.96;36.95;96637.22;4239329;27;5730;-67
2022/07/27 13:13:24;;;;;;;;;;;;;;;28.95;36.83;96638.34;4233881;27;5755;-67
2022/07/27 13:15:27;;;;;;;;;;;;;;;28.89;36.80;96637.69;4235070;27;5783;-68
2022/07/27 13:17:30;;;;;;;;;;;;;;;28.82;36.82;96631.88;4238330;27;5823;-70
2022/07/27 13:19:33;;;;;;;;;;;;;;;28.77;36.62;96634.75;4238860;27;5763;-66
2022/07/27 13:21:36;;;;;;;;;;;;;;;28.76;36.66;96638.56;4243298;27;5741;-70
2022/07/27 13:23:39;;;;;;;;;;;;;;;28.78;36.55;96633.63;4242575;27;5735;-66
2022/07/27 13:25:43;;;;;;;;;;;;;;;28.80;36.42;96636.84;4245420;27;5838;-65
2022/07/27 13:27:47;;;;;;;;;;;;;;;28.81;36.47;96624.84;4242417;27;5854;-68
2022/07/27 13:29:50;;;;;;;;;;;;;;;28.84;36.46;96624.19;4246211;27;5735;-75
2022/07/27 13:31:53;;;;;;;;;;;;;;;28.88;36.54;96619.78;4244506;27;5774;-74
2022/07/27 13:34:00;;;;;;;;;;;;;;;28.93;36.42;96622.34;4247523;27;5759;-75
2022/07/27 13:36:06;;;;;;;;;;;;;;;28.96;36.37;96634.50;4245061;27;7691;-75
2022/07/27 13:38:09;;;;;;;;;;;;;;;28.95;36.37;96628.25;4243874;27;5677;-74
2022/07/27 13:40:18;;;;;;;;;;;;;;;28.94;36.54;96610.34;4241820;27;6266;-68
2022/07/27 13:42:22;;;;;;;;;;;;;;;28.95;36.77;96614.66;4246011;27;5751;-67
2022/07/27 13:44:25;;;;;;;;;;;;;;;28.96;36.46;96607.28;4237518;27;5774;-67
2022/07/27 13:46:48;;;;;;;;;;;;;;;28.96;36.36;96604.56;4232238;27;5897;-66
2022/07/27 13:48:53;;;;;;;;;;;;;;;28.95;36.16;96609.22;4246495;27;6437;-68
2022/07/27 13:50:56;;;;;;;;;;;;;;;28.96;36.27;96605.38;4242082;27;5755;-68
2022/07/27 13:52:59;;;;;;;;;;;;;;;28.97;36.08;96601.53;4238754;27;5788;-68
2022/07/27 13:55:02;;;;;;;;;;;;;;;28.97;36.04;96604.25;4235240;27;5816;-68
2022/07/27 13:57:09;;;;;;;;;;;;;;;28.96;35.65;96591.78;4239104;27;5715;-68
2022/07/27 13:59:13;;;;;;;;;;;;;;;28.98;35.61;96589.53;4231046;27;5740;-68
2022/07/27 14:01:17;;;;;;;;;;;;;;;28.98;35.61;96581.38;4241717;27;5731;-68
2022/07/27 14:03:20;;;;;;;;;;;;;;;29.02;35.41;96591.63;4239256;27;5841;-65
2022/07/27 14:05:23;;;;;;;;;;;;;;;29.02;35.61;96578.84;4247233;27;5868;-65
2022/07/27 14:07:30;;;;;;;;;;;;;;;29.02;35.43;96586.19;4240170;27;6531;-65
2022/07/27 14:11:55;;;;;;;;;;;;;;;29.03;35.34;96577.72;4211726;27;5731;-69
2022/07/27 14:13:58;;;;;;;;;;;;;;;29.02;35.45;96581.56;4237236;27;5742;-66
2022/07/27 14:16:03;;;;;;;;;;;;;;;29.02;35.50;96575.31;4238967;27;6459;-68
2022/07/27 14:18:06;;;;;;;;;;;;;;;28.99;35.53;96569.38;4240148;27;5747;-65
2022/07/27 14:20:10;;;;;;;;;;;;;;;29.00;35.59;96575.63;4243140;27;5640;-65
2022/07/27 14:22:13;;;;;;;;;;;;;;;28.98;35.66;96572.41;4238704;27;5610;-66
2022/07/27 14:24:16;;;;;;;;;;;;;;;28.98;35.58;96570.47;4236796;27;5759;-69
2022/07/27 14:26:21;;;;;;;;;;;;;;;28.97;35.54;96563.44;4241249;27;5743;-68
2022/07/27 14:28:25;;;;;;;;;;;;;;;28.99;35.80;96557.69;4246653;27;5798;-68
2022/07/27 14:30:28;;;;;;;;;;;;;;;28.98;35.68;96561.53;4240152;27;5668;-68
2022/07/27 14:32:33;;;;;;;;;;;;;;;28.99;35.57;96566.66;4242989;27;5727;-68
2022/07/27 14:34:36;;;;;;;;;;;;;;;29.02;35.64;96567.94;4246163;27;5808;-66
2022/07/27 14:36:39;;;;;;;;;;;;;;;29.02;35.71;96561.72;4243784;27;5796;-66
2022/07/27 14:38:43;;;;;;;;;;;;;;;29.02;35.75;96565.22;4245033;27;8516;-66
2022/07/27 14:40:46;;;;;;;;;;;;;;;29.02;35.80;96564.44;4246878;27;5718;-66
2022/07/27 14:42:48;;;;;;;;;;;;;;;29.03;35.64;96571.47;4247056;27;5739;-67
2022/07/27 14:44:51;;;;;;;;;;;;;;;29.02;35.70;96565.22;4231909;27;5825;-66
2022/07/27 14:46:54;;;;;;;;;;;;;;;29.01;35.74;96568.28;4240704;27;5776;-78
2022/07/27 14:49:02;;;;;;;;;;;;;;;28.99;35.79;96555.78;4247284;27;5730;-71
2022/07/27 14:51:08;;;;;;;;;;;;;;;29.01;35.84;96562.81;4250904;27;5734;-70
2022/07/27 14:53:11;;;;;;;;;;;;;;;29.03;35.75;96550.50;4246243;27;5712;-70
2022/07/27 14:55:14;;;;;;;;;;;;;;;29.05;35.62;96552.91;4241991;27;5898;-64
2022/07/27 14:57:17;;;;;;;;;;;;;;;29.05;35.64;96552.91;4244152;27;5746;-71
2022/07/27 14:59:20;;;;;;;;;;;;;;;29.03;35.69;96550.50;4250302;27;5727;-74
2022/07/27 15:01:23;;;;;;;;;;;;;;;29.06;35.82;96549.06;4238957;27;5904;-75
2022/07/27 15:03:26;;;;;;;;;;;;;;;29.06;35.89;96554.50;4247185;27;7712;-75
2022/07/27 15:05:32;;;;;;;;;;;;;;;29.06;35.89;96555.31;4243330;27;5761;-76
2022/07/27 15:07:51;;;;;;;;;;;;;;;29.07;35.74;96546.00;4241493;27;5766;-75
2022/07/27 15:09:54;;;;;;;;;;;;;;;29.08;35.91;96544.09;4239251;27;5768;-70
2022/07/27 15:11:57;;;;;;;;;;;;;;;29.09;35.93;96553.84;4242363;27;5731;-71
2022/07/27 15:14:00;;;;;;;;;;;;;;;29.11;36.01;96552.44;4241045;27;5751;-73
2022/07/27 15:16:06;;;;;;;;;;;;;;;29.12;36.01;96550.53;4244236;27;5858;-74
2022/07/27 15:18:09;;;;;;;;;;;;;;;29.12;36.09;96543.16;4235090;27;5831;-74
2022/07/27 15:20:13;;;;;;;;;;;;;;;29.14;36.07;96546.34;4236271;27;5796;-74
2022/07/27 15:22:17;;;;;;;;;;;;;;;29.14;36.07;96545.56;4241204;27;5804;-69
2022/07/27 15:24:21;;;;;;;;;;;;;;;29.15;36.03;96542.50;4237107;27;5851;-73
2022/07/27 15:26:24;;;;;;;;;;;;;;;29.17;36.05;96544.91;4237079;27;5953;-77
2022/07/27 15:28:27;;;;;;;;;;;;;;;29.17;36.10;96539.47;4246048;27;5746;-80
2022/07/27 15:30:30;;;;;;;;;;;;;;;29.16;36.38;96538.66;4234709;27;5874;-80
2022/07/27 15:32:40;;;;;;;;;;;;;;;29.16;36.27;96533.22;4243476;27;5722;-80
2022/07/27 15:34:42;;;;;;;;;;;;;;;29.16;36.40;96524.25;4246269;27;6407;-79
2022/07/27 15:36:45;;;;;;;;;;;;;;;29.16;36.12;96522.34;4243667;27;6695;-80
2022/07/27 15:38:55;;;;;;;;;;;;;;;29.17;36.09;96523.13;4240312;27;5759;-79
2022/07/27 15:40:58;;;;;;;;;;;;;;;29.16;36.05;96526.97;4244730;27;5721;-79
2022/07/27 15:43:01;;;;;;;;;;;;;;;29.15;35.96;96525.38;4241077;27;5755;-80
2022/07/27 15:45:04;;;;;;;;;;;;;;;29.11;35.93;96519.78;4235779;27;5783;-66
2022/07/27 15:47:08;;;;;;;;;;;;;;;29.10;35.73;96517.34;4240026;27;5721;-68
2022/07/27 15:49:11;;;;;;;;;;;;;;;29.09;35.52;96513.84;4238961;27;5740;-68
2022/07/27 15:51:14;;;;;;;;;;;;;;;29.11;35.33;96517.06;4233083;27;5760;-69
2022/07/27 15:53:19;;;;;;;;;;;;;;;29.14;35.15;96521.06;4233453;27;5751;-68
2022/07/27 15:55:23;;;;;;;;;;;;;;;29.16;34.94;96521.53;4233747;27;5797;-67
2022/07/27 15:57:26;;;;;;;;;;;;;;;29.17;34.90;96520.41;4242572;27;5730;-67
2022/07/27 15:59:29;;;;;;;;;;;;;;;29.18;34.49;96520.09;4248691;27;5730;-67
2022/07/27 16:01:33;;;;;;;;;;;;;;;29.18;34.41;96514.66;4247943;27;5758;-68
2022/07/27 16:03:37;;;;;;;;;;;;;;;29.21;34.33;96513.19;4249093;27;5714;-67
2022/07/27 16:05:42;;;;;;;;;;;;;;;29.21;34.18;96513.19;4244328;27;5744;-67
2022/07/27 16:07:45;;;;;;;;;;;;;;;29.20;33.89;96517.03;4247670;27;5716;-67
2022/07/27 16:09:48;;;;;;;;;;;;;;;29.19;33.77;96515.44;4240096;27;5756;-67
2022/07/27 16:11:52;;;;;;;;;;;;;;;29.19;33.63;96510.81;4241236;27;5756;-67
2022/07/27 16:13:55;;;;;;;;;;;;;;;29.16;33.55;96513.38;4242971;27;5723;-68
2022/07/27 16:18:18;;;;;;;;;;;;;;;29.18;33.27;96502.97;4246578;27;5786;-68
2022/07/27 16:20:21;;;;;;;;;;;;;;;29.20;33.26;96506.16;4247152;27;5703;-68
2022/07/27 16:22:25;;;;;;;;;;;;;;;29.22;33.15;96501.19;4240918;27;5747;-70
2022/07/27 16:24:28;;;;;;;;;;;;;;;29.23;32.94;96506.34;4236734;27;5744;-68
2022/07/27 16:26:33;;;;;;;;;;;;;;;29.24;32.91;96498.97;4240454;27;5098;-68
2022/07/27 16:28:39;;;;;;;;;;;;;;;29.25;32.67;96511.47;4244008;27;5722;-67
2022/07/27 16:30:42;;;;;;;;;;;;;;;29.24;32.63;96501.69;4237076;27;5756;-67
2022/07/27 16:32:45;;;;;;;;;;;;;;;29.24;32.46;96499.78;4248851;27;5778;-67
2022/07/27 16:34:48;;;;;;;;;;;;;;;29.23;32.50;96505.53;4242228;27;5755;-68
2022/07/27 16:36:51;;;;;;;;;;;;;;;29.21;32.50;96502.31;4239654;27;5748;-66
2022/07/27 16:38:54;;;;;;;;;;;;;;;29.20;32.33;96495.28;4247586;27;5723;-68
2022/07/27 16:40:57;;;;;;;;;;;;;;;29.22;32.28;96491.13;4244438;27;5751;-67
2022/07/27 16:43:01;;;;;;;;;;;;;;;29.23;32.22;96491.94;4247756;27;5744;-68
2022/07/27 16:45:07;;;;;;;;;;;;;;;29.21;32.10;96492.22;4239102;27;5749;-67
2022/07/27 16:47:11;;;;;;;;;;;;;;;29.22;32.23;96493.84;4238097;27;6417;-67
2022/07/27 16:49:15;;;;;;;;;;;;;;;29.21;31.90;96494.16;4249392;27;5735;-67
2022/07/27 16:51:18;;;;;;;;;;;;;;;29.21;31.97;96492.22;4249706;27;5712;-68
2022/07/27 16:53:21;;;;;;;;;;;;;;;29.17;31.90;96488.56;4249427;27;5723;-68
2022/07/27 16:55:24;;;;;;;;;;;;;;;29.18;31.83;96481.19;4249337;27;5737;-68
2022/07/27 16:57:29;;;;;;;;;;;;;;;29.18;32.03;96492.06;4249309;27;5751;-68
2022/07/27 16:59:32;;;;;;;;;;;;;;;29.19;31.79;96489.03;4249397;27;5730;-68
2022/07/27 17:01:36;;;;;;;;;;;;;;;29.21;31.82;96496.88;4249798;27;5706;-68
2022/07/27 17:03:45;;;;;;;;;;;;;;;29.20;31.59;96489.81;4248557;27;5846;-69
2022/07/27 17:05:48;;;;;;;;;;;;;;;29.19;31.51;96485.50;4232729;28;5751;-69
2022/07/27 17:07:51;;;;;;;;;;;;;;;29.18;31.52;96500.25;4232418;28;5877;-69
2022/07/27 17:09:54;;;;;;;;;;;;;;;29.16;31.51;96491.59;4230971;28;5636;-68
2022/07/27 17:11:57;;;;;;;;;;;;;;;29.15;31.49;96488.06;4231828;27;5799;-69
2022/07/27 17:14:01;;;;;;;;;;;;;;;29.17;31.42;96493.19;4240837;27;6530;-68
2022/07/27 17:16:05;;;;;;;;;;;;;;;29.16;31.44;96483.44;4249170;27;5714;-69
2022/07/27 17:18:10;;;;;;;;;;;;;;;29.17;31.50;96491.28;4249355;27;6346;-68
2022/07/27 17:20:12;;;;;;;;;;;;;;;29.15;31.24;96482.63;4249131;27;7671;-69
2022/07/27 17:22:15;;;;;;;;;;;;;;;29.13;31.25;96489.53;4249113;27;5718;-69
2022/07/27 17:24:18;;;;;;;;;;;;;;;29.11;31.21;96489.84;4248963;27;5860;-69
2022/07/27 17:26:22;;;;;;;;;;;;;;;29.12;31.24;96493.38;4249170;27;5771;-69
2022/07/27 17:28:26;;;;;;;;;;;;;;;29.11;31.34;96502.63;4249011;27;5722;-68
2022/07/27 17:30:30;;;;;;;;;;;;;;;29.07;31.15;96501.66;4237878;27;5703;-68
2022/07/27 17:32:39;;;;;;;;;;;;;;;29.06;31.03;96489.19;4232125;28;6473;-68
2022/07/27 17:34:44;;;;;;;;;;;;;;;29.06;31.01;96500.06;4231847;28;5736;-68
2022/07/27 17:36:49;;;;;;;;;;;;;;;29.06;31.09;96500.06;4230649;28;5860;-69
2022/07/27 17:38:52;;;;;;;;;;;;;;;29.07;31.02;96501.66;4231601;27;5768;-69
2022/07/27 17:40:54;;;;;;;;;;;;;;;29.05;31.36;96499.28;4231972;28;6006;-69
2022/07/27 17:42:57;;;;;;;;;;;;;;;29.05;31.02;96493.03;4232085;28;5788;-69
2022/07/27 17:45:00;;;;;;;;;;;;;;;29.03;31.10;96487.13;4236684;27;5704;-69
2022/07/27 17:47:03;;;;;;;;;;;;;;;29.04;31.09;96507.75;4246224;27;5767;-69